Time;durP1;ratioP1;P1;durP2;ratioP2;P2;SDS_P1;SDS_P2;PMS_P1;PMS_P2;Temp;Humidity;BMP_temperature;BMP_pressure;BME280_temperature;BME280_humidity;BME280_pressure;Samples;Min_cycle;Max_cycle;Signal;HPM_P1;HPM_P2
2023/03/12 00:01:52;;;;;;;12.00;5.97;;;0.80;99.90;;;;;;5022233;28;20084;-75
2023/03/12 00:04:17;;;;;;;10.55;5.45;;;0.80;99.90;;;;;;5049994;28;20045;-75
2023/03/12 00:06:43;;;;;;;10.98;5.72;;;0.70;99.90;;;;;;5046468;28;20123;-75
2023/03/12 00:09:09;;;;;;;10.25;5.68;;;0.80;99.90;;;;;;5047532;28;20119;-76
2023/03/12 00:11:34;;;;;;;12.25;5.93;;;0.70;99.90;;;;;;5028165;28;20048;-76
2023/03/12 00:14:00;;;;;;;10.18;5.53;;;0.70;99.90;;;;;;5053484;28;20041;-75
2023/03/12 00:16:26;;;;;;;8.65;5.43;;;0.70;99.90;;;;;;5036079;28;20131;-76
2023/03/12 00:18:54;;;;;;;9.25;5.32;;;0.70;99.90;;;;;;5062522;28;20033;-76
2023/03/12 00:21:21;;;;;;;8.80;5.20;;;0.70;99.90;;;;;;5028888;28;20404;-75
2023/03/12 00:23:51;;;;;;;9.73;5.30;;;0.70;99.90;;;;;;5036397;28;20079;-76
2023/03/12 00:26:18;;;;;;;12.98;5.70;;;0.70;99.90;;;;;;5033202;28;20123;-76
2023/03/12 00:28:44;;;;;;;11.32;5.50;;;0.60;99.90;;;;;;5050528;28;20664;-75
2023/03/12 00:31:16;;;;;;;9.38;5.15;;;0.70;99.90;;;;;;5045697;28;20040;-75
2023/03/12 00:33:42;;;;;;;10.68;5.18;;;0.70;99.90;;;;;;5030436;28;20477;-75
2023/03/12 00:36:09;;;;;;;8.55;5.10;;;0.70;99.90;;;;;;5034155;28;20037;-76
2023/03/12 00:38:34;;;;;;;10.02;5.43;;;0.70;99.90;;;;;;5057319;28;20082;-75
2023/03/12 00:41:00;;;;;;;8.32;4.97;;;0.70;99.90;;;;;;5033109;28;20392;-75
2023/03/12 00:43:26;;;;;;;9.48;4.95;;;0.70;99.90;;;;;;5047664;28;20068;-75
2023/03/12 00:45:51;;;;;;;10.38;5.60;;;0.70;99.90;;;;;;5045954;28;20040;-75
2023/03/12 00:48:17;;;;;;;11.90;5.38;;;0.70;99.90;;;;;;5027996;28;20043;-75
2023/03/12 00:50:43;;;;;;;11.45;5.43;;;0.70;99.90;;;;;;5041428;28;20119;-75
2023/03/12 00:53:08;;;;;;;12.95;5.72;;;0.70;99.90;;;;;;5031784;28;20429;-75
2023/03/12 00:55:36;;;;;;;10.43;5.75;;;0.80;99.90;;;;;;5029806;28;20049;-75
2023/03/12 00:58:02;;;;;;;14.13;5.55;;;0.80;99.90;;;;;;5038453;28;20131;-75
2023/03/12 01:00:28;;;;;;;14.30;5.72;;;0.80;99.90;;;;;;5052404;28;20067;-75
2023/03/12 01:02:54;;;;;;;12.52;6.30;;;0.90;99.90;;;;;;5065200;28;20053;-75
2023/03/12 01:05:19;;;;;;;10.15;5.53;;;0.80;99.90;;;;;;5027455;28;20033;-75
2023/03/12 01:07:45;;;;;;;12.57;5.82;;;0.80;99.90;;;;;;5044870;28;20035;-75
2023/03/12 01:10:14;;;;;;;8.73;5.20;;;0.80;99.90;;;;;;5036682;28;20129;-75
2023/03/12 01:12:40;;;;;;;9.90;5.20;;;0.80;99.90;;;;;;5028087;28;20074;-75
2023/03/12 01:15:06;;;;;;;13.18;5.18;;;0.80;99.90;;;;;;5065610;28;20024;-75
2023/03/12 01:17:32;;;;;;;9.32;4.93;;;0.90;99.90;;;;;;5049138;28;20043;-75
2023/03/12 01:19:57;;;;;;;9.45;5.00;;;0.90;99.90;;;;;;5050169;28;20123;-75
2023/03/12 01:22:23;;;;;;;11.77;5.43;;;0.90;99.90;;;;;;5063509;28;20033;-75
2023/03/12 01:24:49;;;;;;;11.07;5.20;;;0.90;99.90;;;;;;5044761;28;20036;-75
2023/03/12 01:27:14;;;;;;;12.40;5.13;;;1.00;99.90;;;;;;5067151;28;20040;-75
2023/03/12 01:29:40;;;;;;;8.82;4.82;;;1.00;99.90;;;;;;5044003;28;20032;-75
2023/03/12 01:32:06;;;;;;;9.23;4.93;;;1.00;99.90;;;;;;5043349;28;20043;-75
2023/03/12 01:34:34;;;;;;;11.30;4.88;;;1.00;99.90;;;;;;5050299;28;20419;-75
2023/03/12 01:37:00;;;;;;;8.88;4.95;;;1.00;99.90;;;;;;5052231;28;20052;-75
2023/03/12 01:39:25;;;;;;;11.73;4.78;;;1.00;99.90;;;;;;5057837;28;20037;-75
2023/03/12 01:41:51;;;;;;;10.52;4.68;;;1.00;99.90;;;;;;5046683;28;20144;-75
2023/03/12 01:44:16;;;;;;;8.13;4.30;;;1.00;99.90;;;;;;5041457;28;20044;-75
2023/03/12 01:46:44;;;;;;;12.82;4.90;;;1.00;99.90;;;;;;5030301;28;20115;-75
2023/03/12 01:49:22;;;;;;;10.45;4.95;;;1.10;99.90;;;;;;5050005;28;20028;-75
2023/03/12 01:51:57;;;;;;;9.98;4.75;;;1.10;99.90;;;;;;5049963;28;20036;-75
2023/03/12 01:54:45;;;;;;;9.70;4.38;;;1.10;99.90;;;;;;5047769;28;20048;-75
2023/03/12 01:57:15;;;;;;;11.65;4.72;;;1.10;99.90;;;;;;5038198;28;20079;-75
2023/03/12 01:59:49;;;;;;;9.98;4.88;;;1.30;99.90;;;;;;5050375;28;20397;-75
2023/03/12 02:02:15;;;;;;;10.45;4.72;;;1.10;99.90;;;;;;5049822;28;20127;-75
2023/03/12 02:04:42;;;;;;;11.40;4.88;;;1.10;99.90;;;;;;5042309;28;20040;-75
2023/03/12 02:07:11;;;;;;;10.40;4.38;;;1.10;99.90;;;;;;5044048;28;20047;-75
2023/03/12 02:09:41;;;;;;;8.25;4.60;;;1.10;99.90;;;;;;5069644;28;20032;-75
2023/03/12 02:12:07;;;;;;;11.68;4.97;;;1.10;99.90;;;;;;5036102;28;20048;-75
2023/03/12 02:14:32;;;;;;;11.07;5.05;;;1.10;99.90;;;;;;5055851;28;20039;-75
2023/03/12 02:16:58;;;;;;;9.80;4.63;;;1.10;99.90;;;;;;5046924;28;20045;-75
2023/03/12 02:20:00;;;;;;;12.15;5.00;;;1.10;99.90;;;;;;5071106;28;20155;-75
2023/03/12 02:22:25;;;;;;;8.18;4.55;;;1.20;99.90;;;;;;5045268;28;20074;-75
2023/03/12 02:25:34;;;;;;;10.45;5.00;;;1.20;99.90;;;;;;5073408;28;20115;-75
2023/03/12 02:28:03;;;;;;;9.35;5.05;;;1.20;99.90;;;;;;5015190;28;20471;-75
2023/03/12 02:30:30;;;;;;;10.32;5.28;;;1.20;99.90;;;;;;5035627;28;20037;-75
2023/03/12 02:33:00;;;;;;;9.98;5.35;;;1.20;99.90;;;;;;5025751;28;20033;-75
2023/03/12 02:35:25;;;;;;;10.75;5.68;;;1.20;99.90;;;;;;5064821;28;20146;-75
2023/03/12 02:37:54;;;;;;;11.45;6.25;;;1.20;99.90;;;;;;5057689;28;20159;-75
2023/03/12 02:40:32;;;;;;;9.25;6.10;;;1.20;99.90;;;;;;5046025;28;20049;-75
2023/03/12 02:42:58;;;;;;;11.00;6.30;;;1.30;99.90;;;;;;5048112;28;20032;-75
2023/03/12 02:45:24;;;;;;;10.65;6.47;;;1.30;99.90;;;;;;5047944;28;20044;-75
2023/03/12 02:47:50;;;;;;;11.95;6.68;;;1.30;99.90;;;;;;5055785;28;20488;-75
2023/03/12 02:50:16;;;;;;;11.48;6.38;;;1.30;99.90;;;;;;5054842;28;20118;-75
2023/03/12 02:52:41;;;;;;;11.25;6.70;;;1.30;99.90;;;;;;5057819;28;20041;-75
2023/03/12 02:55:08;;;;;;;16.45;6.50;;;1.30;99.90;;;;;;5038805;28;20032;-75
2023/03/12 02:57:36;;;;;;;13.13;6.78;;;1.30;99.90;;;;;;5037104;28;20059;-75
2023/03/12 03:00:05;;;;;;;11.98;6.72;;;1.40;99.90;;;;;;5040892;28;20047;-75
2023/03/12 03:02:31;;;;;;;10.70;6.30;;;1.30;99.90;;;;;;5041197;28;20482;-75
2023/03/12 03:04:56;;;;;;;12.80;6.65;;;1.30;99.90;;;;;;5041524;28;20112;-75
2023/03/12 03:07:22;;;;;;;14.98;7.15;;;1.30;99.90;;;;;;5037567;28;20060;-75
2023/03/12 03:09:47;;;;;;;11.38;6.70;;;1.30;99.90;;;;;;5059445;28;20029;-76
2023/03/12 03:12:13;;;;;;;11.35;6.65;;;1.30;99.90;;;;;;5039725;28;20139;-76
2023/03/12 03:14:38;;;;;;;11.80;6.07;;;1.30;99.90;;;;;;5056606;28;20036;-76
2023/03/12 03:17:04;;;;;;;12.85;6.50;;;1.30;99.90;;;;;;5052466;28;20105;-76
2023/03/12 03:19:29;;;;;;;14.88;6.60;;;1.30;99.90;;;;;;5054100;28;20132;-76
2023/03/12 03:21:55;;;;;;;13.20;6.03;;;1.30;99.90;;;;;;5073807;28;20033;-76
2023/03/12 03:24:20;;;;;;;11.50;6.57;;;1.40;99.90;;;;;;5053431;28;20039;-76
2023/03/12 03:26:46;;;;;;;11.18;6.40;;;1.40;99.90;;;;;;5053697;28;20048;-76
2023/03/12 03:29:12;;;;;;;10.68;5.50;;;1.40;99.90;;;;;;5053585;28;20093;-76
2023/03/12 03:31:37;;;;;;;10.77;6.55;;;1.30;99.90;;;;;;5054139;28;20063;-76
2023/03/12 03:34:03;;;;;;;12.88;5.97;;;1.40;99.90;;;;;;5049985;28;20119;-76
2023/03/12 03:36:28;;;;;;;14.07;6.13;;;1.40;99.90;;;;;;5071728;28;20045;-76
2023/03/12 03:38:54;;;;;;;14.25;6.93;;;1.40;99.90;;;;;;5048735;28;20044;-76
2023/03/12 03:41:20;;;;;;;17.38;6.68;;;1.40;99.90;;;;;;5053435;28;20069;-76
2023/03/12 03:43:45;;;;;;;11.15;6.13;;;1.40;99.90;;;;;;5054414;28;20040;-76
2023/03/12 03:46:12;;;;;;;11.75;6.25;;;1.40;99.90;;;;;;5041368;28;20041;-76
2023/03/12 03:48:38;;;;;;;11.40;6.28;;;1.40;99.90;;;;;;5053604;28;20039;-76
2023/03/12 03:51:05;;;;;;;12.93;6.15;;;1.40;99.90;;;;;;5045847;28;20037;-76
2023/03/12 03:53:33;;;;;;;12.82;6.10;;;1.40;99.90;;;;;;5048351;28;20037;-76
2023/03/12 03:56:05;;;;;;;12.82;5.80;;;1.40;99.90;;;;;;5036744;28;20155;-76
2023/03/12 03:58:30;;;;;;;11.88;5.78;;;1.50;99.90;;;;;;5038586;28;20037;-76
2023/03/12 04:00:56;;;;;;;12.60;6.03;;;1.40;99.90;;;;;;5063692;28;20504;-76
2023/03/12 04:03:21;;;;;;;11.57;5.90;;;1.40;99.90;;;;;;5050942;28;20399;-75
2023/03/12 04:05:53;;;;;;;12.13;6.35;;;1.50;99.90;;;;;;5053605;28;20086;-76
2023/03/12 04:08:19;;;;;;;10.98;6.13;;;1.40;99.90;;;;;;5046423;28;20075;-76
2023/03/12 04:10:44;;;;;;;14.38;6.70;;;1.40;99.90;;;;;;5046765;28;20040;-76
2023/03/12 04:13:10;;;;;;;11.48;6.80;;;1.50;99.90;;;;;;5057245;28;20081;-76
2023/03/12 04:15:35;;;;;;;16.10;6.45;;;1.50;99.90;;;;;;5044206;28;20488;-76
2023/03/12 04:18:01;;;;;;;12.63;6.13;;;1.50;99.90;;;;;;5054723;28;20044;-76
2023/03/12 04:20:26;;;;;;;14.13;6.50;;;1.50;99.90;;;;;;5052144;28;20045;-76
2023/03/12 04:22:52;;;;;;;12.43;6.10;;;1.50;99.90;;;;;;5053395;28;20047;-76
2023/03/12 04:25:18;;;;;;;13.60;6.63;;;1.50;99.90;;;;;;5072276;28;20044;-76
2023/03/12 04:27:43;;;;;;;10.98;5.90;;;1.50;99.90;;;;;;5054095;28;20080;-76
2023/03/12 04:30:09;;;;;;;11.15;6.15;;;1.50;99.90;;;;;;5043642;28;20028;-76
2023/03/12 04:32:35;;;;;;;10.38;5.82;;;1.50;99.90;;;;;;5046653;28;20037;-76
2023/03/12 04:35:00;;;;;;;12.02;6.32;;;1.50;99.90;;;;;;5047790;28;20040;-76
2023/03/12 04:37:26;;;;;;;13.45;6.32;;;1.60;99.90;;;;;;5039657;28;20033;-76
2023/03/12 04:39:51;;;;;;;11.15;6.18;;;1.50;99.90;;;;;;5072427;28;20106;-76
2023/03/12 04:42:17;;;;;;;14.93;5.85;;;1.60;99.90;;;;;;5066076;28;20041;-76
2023/03/12 04:44:43;;;;;;;11.50;6.03;;;1.60;99.90;;;;;;5050999;28;20528;-76
2023/03/12 04:47:08;;;;;;;9.90;6.00;;;1.60;99.90;;;;;;5064114;28;20045;-76
2023/03/12 04:49:34;;;;;;;13.10;6.22;;;1.60;99.90;;;;;;5053892;28;20036;-76
2023/03/12 04:51:59;;;;;;;18.38;6.30;;;1.60;99.90;;;;;;5053803;28;20033;-76
2023/03/12 04:54:25;;;;;;;12.10;6.70;;;1.60;99.90;;;;;;5026041;28;20397;-76
2023/03/12 04:56:51;;;;;;;16.25;6.55;;;1.60;99.90;;;;;;5043332;28;20428;-76
2023/03/12 04:59:16;;;;;;;11.68;5.95;;;1.60;99.90;;;;;;5054693;28;20048;-76
2023/03/12 05:01:42;;;;;;;11.23;6.35;;;1.70;99.90;;;;;;5055909;28;20047;-76
2023/03/12 05:04:08;;;;;;;10.13;6.30;;;1.70;99.90;;;;;;5044846;28;20045;-76
2023/03/12 05:06:34;;;;;;;14.85;6.97;;;1.60;99.90;;;;;;5044579;28;20039;-76
2023/03/12 05:09:00;;;;;;;15.02;6.50;;;1.70;99.90;;;;;;5069971;28;20036;-76
2023/03/12 05:11:25;;;;;;;13.00;6.32;;;1.70;99.90;;;;;;5053570;28;20661;-76
2023/03/12 05:13:51;;;;;;;11.27;6.70;;;1.70;99.90;;;;;;5051802;28;20145;-76
2023/03/12 05:16:17;;;;;;;10.63;6.13;;;1.70;99.90;;;;;;5036318;28;20052;-76
2023/03/12 05:18:43;;;;;;;14.00;6.90;;;1.70;99.90;;;;;;5040704;28;20033;-76
2023/03/12 05:21:19;;;;;;;11.65;6.78;;;1.70;99.90;;;;;;5034910;28;20047;-76
2023/03/12 05:23:45;;;;;;;10.55;6.20;;;1.70;99.90;;;;;;5028444;28;20033;-76
2023/03/12 05:26:30;;;;;;;11.93;6.32;;;1.70;99.90;;;;;;5057537;28;20040;-77
2023/03/12 05:28:56;;;;;;;13.27;6.30;;;1.70;99.90;;;;;;5053901;28;20024;-77
2023/03/12 05:31:22;;;;;;;12.77;6.35;;;1.80;99.90;;;;;;5072749;28;20073;-77
2023/03/12 05:33:49;;;;;;;13.57;6.70;;;1.80;99.90;;;;;;5044012;28;20037;-77
2023/03/12 05:36:15;;;;;;;13.80;6.82;;;1.80;99.90;;;;;;5057479;28;20032;-76
2023/03/12 05:38:44;;;;;;;12.25;6.72;;;1.80;99.90;;;;;;5061327;28;20044;-76
2023/03/12 05:41:21;;;;;;;13.52;6.82;;;1.80;99.90;;;;;;5059937;28;20066;-77
2023/03/12 05:43:47;;;;;;;13.77;6.97;;;1.70;99.90;;;;;;5058205;28;20098;-77
2023/03/12 05:46:13;;;;;;;14.80;7.15;;;1.70;99.90;;;;;;5056035;28;20137;-76
2023/03/12 05:48:39;;;;;;;15.95;6.82;;;1.70;99.90;;;;;;5051597;28;20497;-76
2023/03/12 05:51:05;;;;;;;13.70;6.95;;;1.70;99.90;;;;;;5054445;28;20079;-76
2023/03/12 05:53:30;;;;;;;14.02;7.18;;;1.70;99.90;;;;;;5057686;28;20041;-76
2023/03/12 05:56:03;;;;;;;12.15;6.53;;;1.80;99.90;;;;;;5056127;28;20041;-76
2023/03/12 05:58:28;;;;;;;12.45;7.15;;;1.70;99.90;;;;;;5055196;28;20469;-76
2023/03/12 06:00:54;;;;;;;15.15;7.38;;;1.80;99.90;;;;;;5056872;28;20040;-76
2023/03/12 06:03:19;;;;;;;17.20;7.68;;;1.70;99.90;;;;;;5043741;28;20037;-76
2023/03/12 06:05:46;;;;;;;16.25;7.68;;;1.70;99.90;;;;;;5028240;28;20098;-77
2023/03/12 06:08:12;;;;;;;18.20;7.63;;;1.70;99.90;;;;;;5046985;28;20037;-76
2023/03/12 06:10:38;;;;;;;12.93;7.63;;;1.70;99.90;;;;;;5074357;28;20036;-76
2023/03/12 06:13:04;;;;;;;14.15;7.35;;;1.70;99.90;;;;;;5035643;28;20522;-76
2023/03/12 06:15:30;;;;;;;15.63;7.57;;;1.80;99.90;;;;;;5055257;28;20067;-76
2023/03/12 06:17:55;;;;;;;13.40;7.57;;;1.80;99.90;;;;;;5055866;28;20083;-76
2023/03/12 06:20:21;;;;;;;15.88;7.70;;;1.90;99.90;;;;;;5028783;28;20052;-76
2023/03/12 06:22:47;;;;;;;15.00;7.53;;;1.80;99.90;;;;;;5049264;28;20044;-76
2023/03/12 06:25:12;;;;;;;16.05;7.72;;;1.80;99.90;;;;;;5063522;28;20067;-76
2023/03/12 06:27:38;;;;;;;14.68;7.13;;;1.80;99.90;;;;;;5050073;28;20085;-76
2023/03/12 06:30:04;;;;;;;16.67;7.55;;;1.80;99.90;;;;;;5030443;28;20064;-76
2023/03/12 06:32:30;;;;;;;15.45;7.88;;;1.80;99.90;;;;;;5049178;28;20513;-76
2023/03/12 06:34:55;;;;;;;16.80;7.60;;;1.90;99.90;;;;;;5053725;28;20056;-78
2023/03/12 06:37:21;;;;;;;14.02;7.50;;;1.90;99.90;;;;;;5064436;28;20032;-76
2023/03/12 06:39:47;;;;;;;12.93;7.30;;;1.90;99.90;;;;;;5040347;28;20040;-76
2023/03/12 06:42:13;;;;;;;17.13;7.53;;;1.90;99.90;;;;;;5035826;28;20041;-76
2023/03/12 06:44:39;;;;;;;17.23;7.80;;;2.00;99.90;;;;;;5066857;28;20032;-76
2023/03/12 06:47:05;;;;;;;16.60;7.20;;;2.00;99.90;;;;;;5053293;28;20500;-76
2023/03/12 06:49:32;;;;;;;13.15;7.55;;;2.00;99.90;;;;;;5038277;28;20395;-77
2023/03/12 06:51:57;;;;;;;17.70;8.00;;;2.00;99.90;;;;;;5049055;28;20041;-77
2023/03/12 06:54:23;;;;;;;14.25;7.32;;;1.90;99.90;;;;;;5051024;28;20044;-77
2023/03/12 06:56:49;;;;;;;17.98;7.57;;;2.10;99.90;;;;;;5044213;28;20083;-78
2023/03/12 06:59:14;;;;;;;22.45;7.95;;;2.00;99.90;;;;;;5062108;28;20051;-77
2023/03/12 07:01:40;;;;;;;13.10;7.60;;;2.00;99.90;;;;;;5044502;28;20040;-77
2023/03/12 07:04:05;;;;;;;17.65;8.05;;;1.90;99.90;;;;;;5044884;28;20068;-78
2023/03/12 07:06:31;;;;;;;19.73;8.45;;;1.90;99.90;;;;;;5047393;28;20044;-76
2023/03/12 07:08:56;;;;;;;13.48;7.22;;;2.00;99.90;;;;;;5051226;28;20029;-78
2023/03/12 07:11:22;;;;;;;14.30;8.15;;;1.90;99.90;;;;;;5061895;28;20063;-77
2023/03/12 07:13:47;;;;;;;17.15;8.15;;;1.90;99.90;;;;;;5044815;28;20087;-77
2023/03/12 07:16:13;;;;;;;13.85;8.15;;;1.90;99.90;;;;;;5051742;28;20094;-77
2023/03/12 07:18:39;;;;;;;12.98;7.88;;;1.90;99.90;;;;;;5067421;28;20040;-77
2023/03/12 07:21:04;;;;;;;16.23;8.10;;;1.90;99.90;;;;;;5052478;28;20032;-77
2023/03/12 07:23:30;;;;;;;15.65;7.63;;;1.90;99.90;;;;;;5052275;28;20045;-77
2023/03/12 07:25:55;;;;;;;15.43;8.15;;;1.90;99.90;;;;;;5057311;28;20044;-77
2023/03/12 07:28:21;;;;;;;13.98;8.00;;;2.00;99.90;;;;;;5049500;28;20044;-77
2023/03/12 07:30:50;;;;;;;12.20;7.28;;;1.90;99.90;;;;;;5034922;28;20128;-77
2023/03/12 07:33:17;;;;;;;11.82;6.90;;;2.00;99.90;;;;;;5047276;28;20040;-77
2023/03/12 07:35:44;;;;;;;12.00;7.38;;;1.90;99.90;;;;;;5052549;28;20434;-77
2023/03/12 07:38:09;;;;;;;16.85;7.30;;;2.00;99.90;;;;;;5053122;28;20512;-76
2023/03/12 07:40:35;;;;;;;12.77;7.80;;;2.10;99.90;;;;;;5031500;28;20036;-77
2023/03/12 07:43:03;;;;;;;16.67;7.05;;;2.00;99.90;;;;;;5059852;28;20261;-77
2023/03/12 07:45:28;;;;;;;11.32;7.32;;;2.00;99.90;;;;;;5042025;28;20052;-76
2023/03/12 07:47:54;;;;;;;14.15;8.00;;;2.00;99.90;;;;;;5049104;28;20050;-76
2023/03/12 07:50:19;;;;;;;14.80;8.32;;;2.10;99.90;;;;;;5069878;28;20145;-77
2023/03/12 07:52:45;;;;;;;14.75;7.82;;;2.00;99.90;;;;;;5043746;28;20037;-77
2023/03/12 07:55:11;;;;;;;11.85;6.93;;;2.10;99.90;;;;;;5051915;28;20037;-77
2023/03/12 07:57:37;;;;;;;14.35;7.15;;;2.10;99.90;;;;;;5034365;28;20039;-76
2023/03/12 08:00:06;;;;;;;14.07;7.10;;;2.10;99.90;;;;;;5040894;28;20072;-77
2023/03/12 08:02:32;;;;;;;11.15;6.25;;;2.10;99.90;;;;;;5049775;28;20040;-77
2023/03/12 08:04:58;;;;;;;12.75;7.18;;;2.10;99.90;;;;;;5071400;28;20036;-76
2023/03/12 08:07:24;;;;;;;13.52;7.70;;;2.10;99.90;;;;;;5045832;28;20048;-76
2023/03/12 08:09:49;;;;;;;15.60;8.00;;;2.10;99.90;;;;;;5051669;28;20072;-76
2023/03/12 08:12:15;;;;;;;14.43;8.07;;;2.10;99.90;;;;;;5053364;28;20048;-76
2023/03/12 08:14:41;;;;;;;11.95;7.05;;;2.10;99.90;;;;;;5030437;28;20127;-75
2023/03/12 08:17:06;;;;;;;13.05;7.32;;;2.10;99.90;;;;;;5043936;28;20093;-75
2023/03/12 08:19:32;;;;;;;12.95;7.30;;;2.20;99.90;;;;;;5047336;28;20041;-75
2023/03/12 08:21:58;;;;;;;15.63;6.47;;;2.20;99.90;;;;;;5037321;28;20091;-76
2023/03/12 08:24:24;;;;;;;13.70;7.82;;;2.20;99.90;;;;;;5069256;28;20036;-76
2023/03/12 08:26:50;;;;;;;13.93;6.55;;;2.20;99.90;;;;;;5038425;28;20041;-76
2023/03/12 08:29:15;;;;;;;15.90;7.40;;;2.20;99.90;;;;;;5041965;28;20040;-76
2023/03/12 08:31:41;;;;;;;10.95;5.82;;;2.20;99.90;;;;;;5025609;28;20065;-76
2023/03/12 08:34:07;;;;;;;14.10;5.93;;;2.20;99.90;;;;;;5045574;28;20045;-76
2023/03/12 08:36:32;;;;;;;12.60;6.10;;;2.30;99.90;;;;;;5069115;28;20408;-76
2023/03/12 08:38:58;;;;;;;10.98;6.45;;;2.20;99.90;;;;;;5050947;28;20123;-77
2023/03/12 08:41:23;;;;;;;14.15;6.60;;;2.20;99.90;;;;;;5042506;28;20594;-76
2023/03/12 08:43:49;;;;;;;11.38;6.15;;;2.20;99.90;;;;;;5045221;28;20102;-76
2023/03/12 08:46:14;;;;;;;12.68;6.40;;;2.20;99.90;;;;;;5039172;28;20045;-76
2023/03/12 08:48:40;;;;;;;11.20;6.30;;;2.20;99.90;;;;;;5053295;28;20454;-76
2023/03/12 08:51:06;;;;;;;9.75;5.80;;;2.20;99.90;;;;;;5052248;28;20500;-76
2023/03/12 08:53:34;;;;;;;13.27;6.00;;;2.20;99.90;;;;;;5055698;28;20079;-76
2023/03/12 08:56:00;;;;;;;13.88;6.05;;;2.30;99.90;;;;;;5049199;28;20051;-76
2023/03/12 08:58:26;;;;;;;13.40;6.30;;;2.30;99.90;;;;;;5051385;28;20481;-76
2023/03/12 09:00:53;;;;;;;13.10;5.90;;;2.30;99.90;;;;;;5052220;28;20047;-76
2023/03/12 09:03:20;;;;;;;10.55;5.65;;;2.40;99.90;;;;;;5051229;28;20120;-76
2023/03/12 09:05:47;;;;;;;13.82;6.70;;;2.40;99.90;;;;;;5023149;28;20040;-76
2023/03/12 09:08:13;;;;;;;10.18;5.93;;;2.40;99.90;;;;;;5049639;28;20037;-76
2023/03/12 09:10:39;;;;;;;10.25;5.97;;;2.40;99.90;;;;;;5045937;28;20037;-76
2023/03/12 09:13:06;;;;;;;14.40;7.03;;;2.40;99.90;;;;;;5067128;28;20029;-76
2023/03/12 09:15:32;;;;;;;12.10;6.50;;;2.50;99.90;;;;;;5048947;28;20037;-75
2023/03/12 09:17:57;;;;;;;14.48;6.85;;;2.40;99.90;;;;;;5044447;28;20405;-75
2023/03/12 09:20:24;;;;;;;8.98;5.78;;;2.50;99.90;;;;;;5062945;28;20094;-76
2023/03/12 09:22:50;;;;;;;14.40;6.57;;;2.50;99.90;;;;;;5052315;28;20404;-75
2023/03/12 09:25:16;;;;;;;10.00;6.38;;;2.50;99.90;;;;;;5042706;28;20574;-75
2023/03/12 09:27:46;;;;;;;12.15;7.05;;;2.50;99.90;;;;;;5029051;28;20036;-75
2023/03/12 09:30:18;;;;;;;12.02;6.88;;;2.60;99.90;;;;;;5031974;28;20094;-75
2023/03/12 09:32:44;;;;;;;10.18;6.80;;;2.60;99.90;;;;;;5064317;28;20063;-76
2023/03/12 09:35:11;;;;;;;12.25;7.00;;;2.60;99.90;;;;;;5038676;28;20475;-76
2023/03/12 09:37:37;;;;;;;13.15;7.50;;;2.60;99.90;;;;;;5046972;28;20037;-75
2023/03/12 09:40:06;;;;;;;13.25;7.30;;;2.60;99.90;;;;;;5041563;28;20422;-75
2023/03/12 09:42:51;;;;;;;15.05;7.30;;;2.60;99.90;;;;;;5027990;28;20036;-76
2023/03/12 09:45:26;;;;;;;12.55;6.97;;;2.70;99.90;;;;;;5049713;28;20442;-75
2023/03/12 09:47:59;;;;;;;17.48;7.60;;;2.70;99.90;;;;;;5038160;28;20037;-76
2023/03/12 09:50:27;;;;;;;12.98;7.70;;;2.70;99.90;;;;;;5045227;28;20052;-75
2023/03/12 09:53:08;;;;;;;12.35;7.65;;;2.70;99.90;;;;;;5051954;28;20054;-75
2023/03/12 09:55:40;;;;;;;13.55;7.95;;;2.80;99.90;;;;;;5039478;28;20470;-78
2023/03/12 09:58:24;;;;;;;13.65;7.68;;;2.80;99.90;;;;;;5047673;28;20036;-75
2023/03/12 10:00:57;;;;;;;14.27;7.78;;;2.90;99.90;;;;;;5047823;28;20123;-76
2023/03/12 10:03:45;;;;;;;15.20;8.18;;;2.80;99.90;;;;;;5052024;28;20433;-75
2023/03/12 10:06:19;;;;;;;13.55;8.35;;;2.90;99.90;;;;;;5044638;28;20503;-76
2023/03/12 10:09:16;;;;;;;16.13;8.75;;;2.90;99.90;;;;;;5041320;28;20392;-75
2023/03/12 10:11:47;;;;;;;12.68;8.07;;;3.00;99.90;;;;;;5063068;28;20040;-75
2023/03/12 10:14:37;;;;;;;15.60;8.25;;;3.00;99.90;;;;;;5052649;28;20078;-75
2023/03/12 10:17:21;;;;;;;14.30;8.40;;;3.10;99.90;;;;;;5051726;28;20040;-76
2023/03/12 10:20:15;;;;;;;17.80;8.85;;;3.10;99.90;;;;;;5072956;28;20073;-76
2023/03/12 10:23:06;;;;;;;14.10;8.23;;;3.20;99.90;;;;;;5055421;28;20093;-77
2023/03/12 10:25:47;;;;;;;12.82;8.27;;;3.20;99.90;;;;;;5040046;28;20033;-76
2023/03/12 10:28:37;;;;;;;12.73;8.60;;;3.30;99.90;;;;;;5041428;28;20062;-75
2023/03/12 10:31:07;;;;;;;15.02;8.65;;;3.30;99.90;;;;;;5038828;28;20044;-78
2023/03/12 10:33:55;;;;;;;14.45;8.65;;;3.30;99.90;;;;;;5055694;28;20412;-76
2023/03/12 10:36:38;;;;;;;12.80;8.05;;;3.40;99.90;;;;;;5053878;28;20037;-76
2023/03/12 10:39:05;;;;;;;;;;;3.40;99.90;;;;;;5050658;28;20044;-75
2023/03/12 10:41:32;;;;;;;14.00;8.43;;;3.50;99.90;;;;;;5063796;28;19928;-79
2023/03/12 10:44:04;;;;;;;15.77;8.98;;;3.50;99.90;;;;;;5026012;28;20068;-75
2023/03/12 10:46:36;;;;;;;;;;;3.60;99.90;;;;;;5031781;28;20036;-76
2023/03/12 10:49:20;;;;;;;13.23;8.18;;;3.60;99.90;;;;;;5045858;28;19916;-76
2023/03/12 10:52:01;;;;;;;15.38;8.60;;;3.70;99.90;;;;;;5054951;28;20074;-76
2023/03/12 10:54:31;;;;;;;13.90;8.80;;;3.70;99.90;;;;;;5047762;28;20111;-78
2023/03/12 10:56:57;;;;;;;18.38;9.60;;;3.80;99.90;;;;;;5054571;28;20279;-76
2023/03/12 10:59:28;;;;;;;21.30;9.65;;;3.80;99.90;;;;;;5050370;28;20132;-78
2023/03/12 11:01:54;;;;;;;15.35;9.23;;;3.80;99.90;;;;;;5047662;28;20082;-75
2023/03/12 11:04:29;;;;;;;18.65;9.63;;;3.90;99.90;;;;;;5053532;28;20041;-77
2023/03/12 11:07:06;;;;;;;15.68;9.05;;;3.90;99.90;;;;;;5045322;28;20036;-75
2023/03/12 11:09:32;;;;;;;16.85;9.73;;;4.00;99.90;;;;;;5054736;28;20128;-78
2023/03/12 11:11:58;;;;;;;16.17;9.10;;;4.00;99.90;;;;;;5031793;28;20048;-78
2023/03/12 11:14:26;;;;;;;17.55;9.85;;;4.10;99.90;;;;;;5054705;28;20047;-75
2023/03/12 11:16:55;;;;;;;15.85;10.23;;;4.10;99.90;;;;;;5047091;28;20041;-78
2023/03/12 11:19:32;;;;;;;18.25;10.57;;;4.20;99.90;;;;;;5041907;28;20072;-75
2023/03/12 11:22:03;;;;;;;19.75;9.70;;;4.20;99.90;;;;;;5040144;28;20045;-75
2023/03/12 11:24:30;;;;;;;18.70;11.02;;;4.30;99.90;;;;;;5048845;28;20086;-75
2023/03/12 11:27:06;;;;;;;18.13;11.32;;;4.30;99.90;;;;;;5051578;28;20040;-75
2023/03/12 11:29:43;;;;;;;21.95;11.10;;;4.40;99.90;;;;;;5054654;28;20484;-75
2023/03/12 11:32:28;;;;;;;23.58;11.95;;;4.50;99.90;;;;;;5047385;28;20044;-76
2023/03/12 11:34:54;;;;;;;19.27;11.88;;;4.50;99.90;;;;;;5054533;28;20075;-75
2023/03/12 11:37:38;;;;;;;22.55;12.50;;;4.60;99.90;;;;;;5053802;28;20044;-75
2023/03/12 11:40:17;;;;;;;27.05;13.25;;;4.70;99.90;;;;;;5042608;28;20037;-75
2023/03/12 11:43:31;;;;;;;24.88;13.15;;;4.80;99.90;;;;;;5036277;28;20041;-75
2023/03/12 11:46:16;;;;;;;22.48;11.57;;;4.90;99.90;;;;;;5064121;28;20133;-75
2023/03/12 11:48:55;;;;;;;18.70;11.48;;;5.00;99.90;;;;;;5054207;28;20036;-75
2023/03/12 11:51:37;;;;;;;25.77;13.45;;;5.10;99.90;;;;;;5051489;28;20037;-75
2023/03/12 11:54:19;;;;;;;25.70;13.05;;;5.20;99.90;;;;;;5070798;28;20040;-77
2023/03/12 11:56:52;;;;;;;24.63;12.80;;;5.20;99.90;;;;;;5038575;28;20070;-76
2023/03/12 11:59:40;;;;;;;26.42;13.60;;;5.30;99.90;;;;;;5069915;28;20044;-75
2023/03/12 12:02:37;;;;;;;28.88;14.40;;;5.40;99.90;;;;;;5044946;28;20126;-75
2023/03/12 12:05:26;;;;;;;30.23;13.70;;;5.40;99.90;;;;;;5051356;28;20118;-75
2023/03/12 12:08:11;;;;;;;27.20;13.75;;;5.50;99.90;;;;;;5020385;28;20060;-76
2023/03/12 12:10:45;;;;;;;28.90;13.98;;;5.70;99.90;;;;;;5061080;28;20063;-75
2023/03/12 12:13:17;;;;;;;33.33;16.33;;;5.80;99.90;;;;;;5027304;28;20037;-75
2023/03/12 12:15:53;;;;;;;30.13;15.40;;;5.80;99.90;;;;;;5031104;28;20040;-75
2023/03/12 12:18:46;;;;;;;33.38;16.50;;;6.00;99.90;;;;;;5063369;28;20028;-75
2023/03/12 12:21:31;;;;;;;34.70;16.65;;;6.10;99.90;;;;;;5035800;28;20043;-77
2023/03/12 12:24:11;;;;;;;33.40;17.45;;;6.20;99.90;;;;;;5047421;28;20416;-75
2023/03/12 12:26:56;;;;;;;35.33;16.80;;;6.30;99.90;;;;;;5046872;28;20439;-75
2023/03/12 12:30:05;;;;;;;35.67;16.58;;;6.40;99.90;;;;;;5041255;28;20071;-78
2023/03/12 12:33:14;;;;;;;38.45;18.05;;;6.50;99.90;;;;;;5024873;28;20047;-76
2023/03/12 12:35:42;;;;;;;31.73;16.15;;;6.60;99.90;;;;;;5043706;28;20087;-75
2023/03/12 12:38:33;;;;;;;36.60;16.45;;;6.70;99.90;;;;;;5044188;28;20128;-75
2023/03/12 12:41:07;;;;;;;32.42;15.63;;;6.80;99.90;;;;;;5037570;28;20065;-76
2023/03/12 12:43:47;;;;;;;35.47;17.10;;;7.00;99.90;;;;;;5052716;28;20072;-78
2023/03/12 12:46:21;;;;;;;39.88;17.30;;;7.00;99.90;;;;;;5048352;28;20052;-76
2023/03/12 12:49:08;;;;;;;46.67;18.13;;;7.10;99.90;;;;;;5052829;28;20556;-77
2023/03/12 12:51:42;;;;;;;47.08;17.92;;;7.10;99.90;;;;;;5050262;28;20049;-78
2023/03/12 12:54:45;;;;;;;47.53;17.50;;;7.20;99.90;;;;;;5044709;28;20068;-75
2023/03/12 12:57:28;;;;;;;41.80;18.25;;;7.20;99.90;;;;;;5045230;28;20040;-76
2023/03/12 13:00:09;;;;;;;38.85;17.65;;;7.20;99.90;;;;;;5049495;28;20036;-75
2023/03/12 13:02:38;;;;;;;33.63;14.87;;;7.30;99.90;;;;;;5036784;28;20052;-77